sensor_id;sensor_type;location;lat;lon;timestamp;temperature;humidity
68051;DHT22;54839;51.364;7.246;2023-07-29T00:01:56;18.80;99.90
68051;DHT22;54839;51.364;7.246;2023-07-29T00:04:22;18.80;99.90
68051;DHT22;54839;51.364;7.246;2023-07-29T00:06:47;18.80;99.90
68051;DHT22;54839;51.364;7.246;2023-07-29T00:09:13;18.80;99.90
68051;DHT22;54839;51.364;7.246;2023-07-29T00:11:39;18.80;99.90
68051;DHT22;54839;51.364;7.246;2023-07-29T00:14:04;18.90;99.90
68051;DHT22;54839;51.364;7.246;2023-07-29T00:16:30;18.90;99.90
68051;DHT22;54839;51.364;7.246;2023-07-29T00:18:56;18.70;99.90
68051;DHT22;54839;51.364;7.246;2023-07-29T00:21:21;18.60;99.90
68051;DHT22;54839;51.364;7.246;2023-07-29T00:23:47;18.50;99.90
68051;DHT22;54839;51.364;7.246;2023-07-29T00:26:13;18.40;99.90
68051;DHT22;54839;51.364;7.246;2023-07-29T00:28:38;18.30;99.90
68051;DHT22;54839;51.364;7.246;2023-07-29T00:31:04;18.40;99.90
68051;DHT22;54839;51.364;7.246;2023-07-29T00:33:30;18.30;99.90
68051;DHT22;54839;51.364;7.246;2023-07-29T00:35:55;18.30;99.90
68051;DHT22;54839;51.364;7.246;2023-07-29T00:38:21;18.30;99.90
68051;DHT22;54839;51.364;7.246;2023-07-29T00:40:47;18.50;99.90
68051;DHT22;54839;51.364;7.246;2023-07-29T00:43:13;18.40;99.90
68051;DHT22;54839;51.364;7.246;2023-07-29T00:45:39;18.40;99.90
68051;DHT22;54839;51.364;7.246;2023-07-29T00:48:05;18.40;99.90
68051;DHT22;54839;51.364;7.246;2023-07-29T00:50:32;18.40;99.90
68051;DHT22;54839;51.364;7.246;2023-07-29T00:52:58;18.50;99.90
68051;DHT22;54839;51.364;7.246;2023-07-29T00:55:24;18.40;99.90
68051;DHT22;54839;51.364;7.246;2023-07-29T00:57:51;18.50;99.90
68051;DHT22;54839;51.364;7.246;2023-07-29T01:00:18;18.50;99.90
68051;DHT22;54839;51.364;7.246;2023-07-29T01:02:44;18.60;99.90
68051;DHT22;54839;51.364;7.246;2023-07-29T01:05:13;18.50;99.90
68051;DHT22;54839;51.364;7.246;2023-07-29T01:07:56;18.50;99.90
68051;DHT22;54839;51.364;7.246;2023-07-29T01:13:10;18.20;99.90
68051;DHT22;54839;51.364;7.246;2023-07-29T01:17:00;18.30;99.90
68051;DHT22;54839;51.364;7.246;2023-07-29T01:18:54;18.20;99.90
68051;DHT22;54839;51.364;7.246;2023-07-29T01:21:26;18.20;99.90
68051;DHT22;54839;51.364;7.246;2023-07-29T01:23:52;18.10;99.90
68051;DHT22;54839;51.364;7.246;2023-07-29T01:26:19;18.10;99.90
68051;DHT22;54839;51.364;7.246;2023-07-29T01:28:44;18.20;99.90
68051;DHT22;54839;51.364;7.246;2023-07-29T01:31:34;18.10;99.90
68051;DHT22;54839;51.364;7.246;2023-07-29T01:34:17;18.10;99.90
68051;DHT22;54839;51.364;7.246;2023-07-29T01:36:47;18.00;99.90
68051;DHT22;54839;51.364;7.246;2023-07-29T01:39:16;18.00;99.90
68051;DHT22;54839;51.364;7.246;2023-07-29T01:41:43;18.00;99.90
68051;DHT22;54839;51.364;7.246;2023-07-29T01:44:09;18.10;99.90
68051;DHT22;54839;51.364;7.246;2023-07-29T01:46:36;18.10;99.90
68051;DHT22;54839;51.364;7.246;2023-07-29T01:49:02;18.10;99.90
68051;DHT22;54839;51.364;7.246;2023-07-29T01:51:28;18.10;99.90
68051;DHT22;54839;51.364;7.246;2023-07-29T01:53:53;18.20;99.90
68051;DHT22;54839;51.364;7.246;2023-07-29T01:56:21;18.10;99.90
68051;DHT22;54839;51.364;7.246;2023-07-29T01:58:46;18.00;99.90
68051;DHT22;54839;51.364;7.246;2023-07-29T02:01:12;18.10;99.90
68051;DHT22;54839;51.364;7.246;2023-07-29T02:03:38;18.10;99.90
68051;DHT22;54839;51.364;7.246;2023-07-29T02:06:04;18.10;99.90
68051;DHT22;54839;51.364;7.246;2023-07-29T02:08:30;18.10;99.90
68051;DHT22;54839;51.364;7.246;2023-07-29T02:10:55;18.10;99.90
68051;DHT22;54839;51.364;7.246;2023-07-29T02:13:21;18.10;99.90
68051;DHT22;54839;51.364;7.246;2023-07-29T02:15:47;18.10;99.90
68051;DHT22;54839;51.364;7.246;2023-07-29T02:18:12;18.20;99.90
68051;DHT22;54839;51.364;7.246;2023-07-29T02:20:38;18.30;99.90
68051;DHT22;54839;51.364;7.246;2023-07-29T02:23:04;18.20;99.90
68051;DHT22;54839;51.364;7.246;2023-07-29T02:25:30;18.40;99.90
68051;DHT22;54839;51.364;7.246;2023-07-29T02:27:55;18.30;99.90
68051;DHT22;54839;51.364;7.246;2023-07-29T02:30:21;18.30;99.90
68051;DHT22;54839;51.364;7.246;2023-07-29T02:32:47;18.30;99.90
68051;DHT22;54839;51.364;7.246;2023-07-29T02:35:12;18.30;99.90
68051;DHT22;54839;51.364;7.246;2023-07-29T02:37:38;18.30;99.90
68051;DHT22;54839;51.364;7.246;2023-07-29T02:40:04;18.20;99.90
68051;DHT22;54839;51.364;7.246;2023-07-29T02:42:31;18.30;99.90
68051;DHT22;54839;51.364;7.246;2023-07-29T02:44:57;18.20;99.90
68051;DHT22;54839;51.364;7.246;2023-07-29T02:47:22;18.20;99.90
68051;DHT22;54839;51.364;7.246;2023-07-29T02:49:48;18.20;99.90
68051;DHT22;54839;51.364;7.246;2023-07-29T02:52:14;18.20;99.90
68051;DHT22;54839;51.364;7.246;2023-07-29T02:54:39;18.20;99.90
68051;DHT22;54839;51.364;7.246;2023-07-29T02:57:05;18.20;99.90
68051;DHT22;54839;51.364;7.246;2023-07-29T02:59:31;18.20;99.90
68051;DHT22;54839;51.364;7.246;2023-07-29T03:01:56;18.30;99.90
68051;DHT22;54839;51.364;7.246;2023-07-29T03:04:22;18.20;99.90
68051;DHT22;54839;51.364;7.246;2023-07-29T03:06:48;18.30;99.90
68051;DHT22;54839;51.364;7.246;2023-07-29T03:09:14;18.30;99.90
68051;DHT22;54839;51.364;7.246;2023-07-29T03:11:40;18.20;99.90
68051;DHT22;54839;51.364;7.246;2023-07-29T03:14:05;18.20;99.90
68051;DHT22;54839;51.364;7.246;2023-07-29T03:16:31;18.30;99.90
68051;DHT22;54839;51.364;7.246;2023-07-29T03:18:57;18.30;99.90
68051;DHT22;54839;51.364;7.246;2023-07-29T03:21:24;18.40;99.90
68051;DHT22;54839;51.364;7.246;2023-07-29T03:23:50;18.30;99.90
68051;DHT22;54839;51.364;7.246;2023-07-29T03:26:15;18.40;99.90
68051;DHT22;54839;51.364;7.246;2023-07-29T03:28:42;18.40;99.90
68051;DHT22;54839;51.364;7.246;2023-07-29T03:31:09;18.30;99.90
68051;DHT22;54839;51.364;7.246;2023-07-29T03:33:34;18.30;99.90
68051;DHT22;54839;51.364;7.246;2023-07-29T03:36:00;18.40;99.90
68051;DHT22;54839;51.364;7.246;2023-07-29T03:38:26;18.30;99.90
68051;DHT22;54839;51.364;7.246;2023-07-29T03:40:52;18.40;99.90
68051;DHT22;54839;51.364;7.246;2023-07-29T03:43:19;18.40;99.90
68051;DHT22;54839;51.364;7.246;2023-07-29T03:45:44;18.30;99.90
68051;DHT22;54839;51.364;7.246;2023-07-29T03:48:10;18.50;99.90
68051;DHT22;54839;51.364;7.246;2023-07-29T03:50:36;18.50;99.90
68051;DHT22;54839;51.364;7.246;2023-07-29T03:53:03;18.50;99.90
68051;DHT22;54839;51.364;7.246;2023-07-29T03:55:29;18.40;99.90
68051;DHT22;54839;51.364;7.246;2023-07-29T03:57:58;18.40;99.90
68051;DHT22;54839;51.364;7.246;2023-07-29T04:00:24;18.40;99.90
68051;DHT22;54839;51.364;7.246;2023-07-29T04:02:50;18.40;99.90
68051;DHT22;54839;51.364;7.246;2023-07-29T04:05:16;18.40;99.90
68051;DHT22;54839;51.364;7.246;2023-07-29T04:07:42;18.40;99.90
68051;DHT22;54839;51.364;7.246;2023-07-29T04:10:07;18.50;99.90
68051;DHT22;54839;51.364;7.246;2023-07-29T04:12:33;18.50;99.90
68051;DHT22;54839;51.364;7.246;2023-07-29T04:14:59;18.50;99.90
68051;DHT22;54839;51.364;7.246;2023-07-29T04:17:25;18.50;99.90
68051;DHT22;54839;51.364;7.246;2023-07-29T04:19:51;18.60;99.90
68051;DHT22;54839;51.364;7.246;2023-07-29T04:22:16;18.50;99.90
68051;DHT22;54839;51.364;7.246;2023-07-29T04:24:42;18.40;99.90
68051;DHT22;54839;51.364;7.246;2023-07-29T04:27:08;18.40;99.90
68051;DHT22;54839;51.364;7.246;2023-07-29T04:29:34;18.40;99.90
68051;DHT22;54839;51.364;7.246;2023-07-29T04:32:03;18.50;99.90
68051;DHT22;54839;51.364;7.246;2023-07-29T04:34:29;18.50;99.90
68051;DHT22;54839;51.364;7.246;2023-07-29T04:36:54;18.50;99.90
68051;DHT22;54839;51.364;7.246;2023-07-29T04:39:20;18.50;99.90
68051;DHT22;54839;51.364;7.246;2023-07-29T04:41:46;18.50;99.90
68051;DHT22;54839;51.364;7.246;2023-07-29T04:44:11;18.50;99.90
68051;DHT22;54839;51.364;7.246;2023-07-29T04:46:40;18.50;99.90
68051;DHT22;54839;51.364;7.246;2023-07-29T04:49:09;18.40;99.90
68051;DHT22;54839;51.364;7.246;2023-07-29T04:51:34;18.50;99.90
68051;DHT22;54839;51.364;7.246;2023-07-29T04:54:00;18.60;99.90
68051;DHT22;54839;51.364;7.246;2023-07-29T04:56:26;18.60;99.90
68051;DHT22;54839;51.364;7.246;2023-07-29T04:58:52;18.50;99.90
68051;DHT22;54839;51.364;7.246;2023-07-29T05:01:18;18.40;99.90
68051;DHT22;54839;51.364;7.246;2023-07-29T05:03:44;18.40;99.90
68051;DHT22;54839;51.364;7.246;2023-07-29T05:06:09;18.40;99.90
68051;DHT22;54839;51.364;7.246;2023-07-29T05:08:35;18.50;99.90
68051;DHT22;54839;51.364;7.246;2023-07-29T05:11:01;18.50;99.90
68051;DHT22;54839;51.364;7.246;2023-07-29T05:13:26;18.50;99.90
68051;DHT22;54839;51.364;7.246;2023-07-29T05:15:52;18.30;99.90
68051;DHT22;54839;51.364;7.246;2023-07-29T05:18:18;18.40;99.90
68051;DHT22;54839;51.364;7.246;2023-07-29T05:20:44;18.30;99.90
68051;DHT22;54839;51.364;7.246;2023-07-29T05:23:09;18.20;99.90
68051;DHT22;54839;51.364;7.246;2023-07-29T05:25:35;18.50;99.90
68051;DHT22;54839;51.364;7.246;2023-07-29T05:28:01;18.40;99.90
68051;DHT22;54839;51.364;7.246;2023-07-29T05:30:28;18.30;99.90
68051;DHT22;54839;51.364;7.246;2023-07-29T05:32:57;18.40;99.90
68051;DHT22;54839;51.364;7.246;2023-07-29T05:35:22;18.50;99.90
68051;DHT22;54839;51.364;7.246;2023-07-29T05:37:48;18.50;99.90
68051;DHT22;54839;51.364;7.246;2023-07-29T05:40:14;18.40;99.90
68051;DHT22;54839;51.364;7.246;2023-07-29T05:42:39;18.40;99.90
68051;DHT22;54839;51.364;7.246;2023-07-29T05:45:06;18.40;99.90
68051;DHT22;54839;51.364;7.246;2023-07-29T05:47:31;18.50;99.90
68051;DHT22;54839;51.364;7.246;2023-07-29T05:49:57;18.50;99.90
68051;DHT22;54839;51.364;7.246;2023-07-29T05:52:23;18.50;99.90
68051;DHT22;54839;51.364;7.246;2023-07-29T05:54:48;18.60;99.90
68051;DHT22;54839;51.364;7.246;2023-07-29T05:57:14;18.50;99.90
68051;DHT22;54839;51.364;7.246;2023-07-29T05:59:40;18.50;99.90
68051;DHT22;54839;51.364;7.246;2023-07-29T06:02:06;18.50;99.90
68051;DHT22;54839;51.364;7.246;2023-07-29T06:04:31;18.40;99.90
68051;DHT22;54839;51.364;7.246;2023-07-29T06:06:57;18.40;99.90
68051;DHT22;54839;51.364;7.246;2023-07-29T06:09:23;18.50;99.90
68051;DHT22;54839;51.364;7.246;2023-07-29T06:11:50;18.40;99.90
68051;DHT22;54839;51.364;7.246;2023-07-29T06:14:16;18.50;99.90
68051;DHT22;54839;51.364;7.246;2023-07-29T06:16:42;18.50;99.90
68051;DHT22;54839;51.364;7.246;2023-07-29T06:19:07;18.60;99.90
68051;DHT22;54839;51.364;7.246;2023-07-29T06:21:34;18.60;99.90
68051;DHT22;54839;51.364;7.246;2023-07-29T06:24:00;18.60;99.90
68051;DHT22;54839;51.364;7.246;2023-07-29T06:26:26;18.40;99.90
68051;DHT22;54839;51.364;7.246;2023-07-29T06:28:51;18.60;99.90
68051;DHT22;54839;51.364;7.246;2023-07-29T06:31:17;18.50;99.90
68051;DHT22;54839;51.364;7.246;2023-07-29T06:33:43;18.30;99.90
68051;DHT22;54839;51.364;7.246;2023-07-29T06:36:08;18.40;99.90
68051;DHT22;54839;51.364;7.246;2023-07-29T06:38:34;18.40;99.90
68051;DHT22;54839;51.364;7.246;2023-07-29T06:41:00;18.30;99.90
68051;DHT22;54839;51.364;7.246;2023-07-29T06:43:26;18.50;99.90
68051;DHT22;54839;51.364;7.246;2023-07-29T06:45:51;18.40;99.90
68051;DHT22;54839;51.364;7.246;2023-07-29T06:48:17;18.30;99.90
68051;DHT22;54839;51.364;7.246;2023-07-29T06:50:44;18.20;99.90
68051;DHT22;54839;51.364;7.246;2023-07-29T06:53:10;18.10;99.90
68051;DHT22;54839;51.364;7.246;2023-07-29T06:55:35;18.20;99.90
68051;DHT22;54839;51.364;7.246;2023-07-29T06:58:01;18.20;99.90
68051;DHT22;54839;51.364;7.246;2023-07-29T07:00:27;18.20;99.90
68051;DHT22;54839;51.364;7.246;2023-07-29T07:02:53;18.30;99.90
68051;DHT22;54839;51.364;7.246;2023-07-29T07:05:19;18.10;99.90
68051;DHT22;54839;51.364;7.246;2023-07-29T07:07:44;18.10;99.90
68051;DHT22;54839;51.364;7.246;2023-07-29T07:10:10;18.30;99.90
68051;DHT22;54839;51.364;7.246;2023-07-29T07:12:38;18.30;99.90
68051;DHT22;54839;51.364;7.246;2023-07-29T07:15:07;18.20;99.90
68051;DHT22;54839;51.364;7.246;2023-07-29T07:17:33;18.20;99.90
68051;DHT22;54839;51.364;7.246;2023-07-29T07:19:59;18.30;99.90
68051;DHT22;54839;51.364;7.246;2023-07-29T07:22:24;18.40;99.90
68051;DHT22;54839;51.364;7.246;2023-07-29T07:24:50;18.30;99.90
68051;DHT22;54839;51.364;7.246;2023-07-29T07:27:16;18.40;99.90
68051;DHT22;54839;51.364;7.246;2023-07-29T07:29:41;18.40;99.90
68051;DHT22;54839;51.364;7.246;2023-07-29T07:32:07;18.70;99.90
68051;DHT22;54839;51.364;7.246;2023-07-29T07:34:33;18.90;99.90
68051;DHT22;54839;51.364;7.246;2023-07-29T07:37:00;18.90;99.90
68051;DHT22;54839;51.364;7.246;2023-07-29T07:39:26;19.00;99.90
68051;DHT22;54839;51.364;7.246;2023-07-29T07:41:51;18.70;99.90
68051;DHT22;54839;51.364;7.246;2023-07-29T07:44:17;18.80;99.90
68051;DHT22;54839;51.364;7.246;2023-07-29T07:46:45;18.70;99.90
68051;DHT22;54839;51.364;7.246;2023-07-29T07:49:11;18.60;99.90
68051;DHT22;54839;51.364;7.246;2023-07-29T07:51:36;18.80;99.90
68051;DHT22;54839;51.364;7.246;2023-07-29T07:54:02;18.90;99.90
68051;DHT22;54839;51.364;7.246;2023-07-29T07:56:27;19.00;99.90
68051;DHT22;54839;51.364;7.246;2023-07-29T07:58:53;19.20;99.90
68051;DHT22;54839;51.364;7.246;2023-07-29T08:01:19;19.40;99.90
68051;DHT22;54839;51.364;7.246;2023-07-29T08:03:45;19.50;99.90
68051;DHT22;54839;51.364;7.246;2023-07-29T08:06:10;19.40;99.90
68051;DHT22;54839;51.364;7.246;2023-07-29T08:08:36;19.50;99.90
68051;DHT22;54839;51.364;7.246;2023-07-29T08:11:02;19.40;99.90
68051;DHT22;54839;51.364;7.246;2023-07-29T08:13:27;19.60;99.90
68051;DHT22;54839;51.364;7.246;2023-07-29T08:15:53;20.00;99.90
68051;DHT22;54839;51.364;7.246;2023-07-29T08:18:19;19.90;99.90
68051;DHT22;54839;51.364;7.246;2023-07-29T08:20:53;19.90;99.90
68051;DHT22;54839;51.364;7.246;2023-07-29T08:23:19;19.80;99.90
68051;DHT22;54839;51.364;7.246;2023-07-29T08:25:45;19.90;99.90
68051;DHT22;54839;51.364;7.246;2023-07-29T08:28:15;19.50;99.90
68051;DHT22;54839;51.364;7.246;2023-07-29T08:30:40;19.50;99.90
68051;DHT22;54839;51.364;7.246;2023-07-29T08:33:06;19.70;99.90
68051;DHT22;54839;51.364;7.246;2023-07-29T08:35:32;19.60;99.90
68051;DHT22;54839;51.364;7.246;2023-07-29T08:37:57;19.60;99.90
68051;DHT22;54839;51.364;7.246;2023-07-29T08:40:27;19.80;99.90
68051;DHT22;54839;51.364;7.246;2023-07-29T08:42:56;19.70;99.90
68051;DHT22;54839;51.364;7.246;2023-07-29T08:45:24;19.70;99.90
68051;DHT22;54839;51.364;7.246;2023-07-29T08:47:54;19.80;99.90
68051;DHT22;54839;51.364;7.246;2023-07-29T08:50:24;19.90;99.90
68051;DHT22;54839;51.364;7.246;2023-07-29T08:52:51;20.20;99.90
68051;DHT22;54839;51.364;7.246;2023-07-29T08:55:18;20.10;99.90
68051;DHT22;54839;51.364;7.246;2023-07-29T08:57:45;19.90;99.90
68051;DHT22;54839;51.364;7.246;2023-07-29T09:00:11;19.80;99.90
68051;DHT22;54839;51.364;7.246;2023-07-29T09:02:38;19.90;99.90
68051;DHT22;54839;51.364;7.246;2023-07-29T09:05:04;20.30;99.90
68051;DHT22;54839;51.364;7.246;2023-07-29T09:07:30;20.40;99.90
68051;DHT22;54839;51.364;7.246;2023-07-29T09:09:59;20.50;99.90
68051;DHT22;54839;51.364;7.246;2023-07-29T09:12:24;20.60;99.90
68051;DHT22;54839;51.364;7.246;2023-07-29T09:14:53;20.50;99.90
68051;DHT22;54839;51.364;7.246;2023-07-29T09:17:20;20.80;99.90
68051;DHT22;54839;51.364;7.246;2023-07-29T09:19:50;20.80;99.90
68051;DHT22;54839;51.364;7.246;2023-07-29T09:22:20;20.80;99.90
68051;DHT22;54839;51.364;7.246;2023-07-29T09:24:46;20.60;99.90
68051;DHT22;54839;51.364;7.246;2023-07-29T09:27:24;20.70;99.90
68051;DHT22;54839;51.364;7.246;2023-07-29T09:29:53;20.70;99.90
68051;DHT22;54839;51.364;7.246;2023-07-29T09:32:24;20.90;99.90
68051;DHT22;54839;51.364;7.246;2023-07-29T09:34:50;21.20;99.90
68051;DHT22;54839;51.364;7.246;2023-07-29T09:37:22;21.30;99.90
68051;DHT22;54839;51.364;7.246;2023-07-29T09:39:49;21.50;99.90
68051;DHT22;54839;51.364;7.246;2023-07-29T09:42:19;21.60;99.90
68051;DHT22;54839;51.364;7.246;2023-07-29T09:44:45;21.50;99.90
68051;DHT22;54839;51.364;7.246;2023-07-29T09:47:22;21.80;99.90
68051;DHT22;54839;51.364;7.246;2023-07-29T09:49:49;21.90;99.90
68051;DHT22;54839;51.364;7.246;2023-07-29T09:52:21;21.80;99.90
68051;DHT22;54839;51.364;7.246;2023-07-29T09:54:48;21.50;99.90
68051;DHT22;54839;51.364;7.246;2023-07-29T09:57:15;21.20;99.90
68051;DHT22;54839;51.364;7.246;2023-07-29T09:59:41;21.10;99.90
68051;DHT22;54839;51.364;7.246;2023-07-29T10:02:13;21.40;99.90
68051;DHT22;54839;51.364;7.246;2023-07-29T10:04:41;21.30;99.90
68051;DHT22;54839;51.364;7.246;2023-07-29T10:07:09;21.40;99.90
68051;DHT22;54839;51.364;7.246;2023-07-29T10:09:36;21.80;99.90
68051;DHT22;54839;51.364;7.246;2023-07-29T10:12:06;22.00;99.90
68051;DHT22;54839;51.364;7.246;2023-07-29T10:14:32;22.30;99.90
68051;DHT22;54839;51.364;7.246;2023-07-29T10:16:59;22.50;99.90
68051;DHT22;54839;51.364;7.246;2023-07-29T10:19:26;22.50;99.90
68051;DHT22;54839;51.364;7.246;2023-07-29T10:21:52;22.40;99.90
68051;DHT22;54839;51.364;7.246;2023-07-29T10:24:24;21.70;99.90
68051;DHT22;54839;51.364;7.246;2023-07-29T10:26:57;21.50;99.90
68051;DHT22;54839;51.364;7.246;2023-07-29T10:29:23;21.30;99.90
68051;DHT22;54839;51.364;7.246;2023-07-29T10:31:52;21.00;99.90
68051;DHT22;54839;51.364;7.246;2023-07-29T10:34:19;21.20;99.90
68051;DHT22;54839;51.364;7.246;2023-07-29T10:36:47;21.40;99.90
68051;DHT22;54839;51.364;7.246;2023-07-29T10:39:13;21.20;99.90
68051;DHT22;54839;51.364;7.246;2023-07-29T10:41:55;20.90;99.90
68051;DHT22;54839;51.364;7.246;2023-07-29T10:47:31;21.00;99.90
68051;DHT22;54839;51.364;7.246;2023-07-29T10:49:59;20.90;99.90
68051;DHT22;54839;51.364;7.246;2023-07-29T10:52:30;21.20;99.90
68051;DHT22;54839;51.364;7.246;2023-07-29T10:54:55;21.30;99.90
68051;DHT22;54839;51.364;7.246;2023-07-29T10:57:34;21.60;99.90
68051;DHT22;54839;51.364;7.246;2023-07-29T11:00:00;21.40;99.90
68051;DHT22;54839;51.364;7.246;2023-07-29T11:02:34;21.80;99.90
68051;DHT22;54839;51.364;7.246;2023-07-29T11:05:06;22.50;99.90
68051;DHT22;54839;51.364;7.246;2023-07-29T11:07:43;22.60;99.90
68051;DHT22;54839;51.364;7.246;2023-07-29T11:10:09;22.40;99.90
68051;DHT22;54839;51.364;7.246;2023-07-29T11:12:43;22.20;99.90
68051;DHT22;54839;51.364;7.246;2023-07-29T11:20:17;23.00;99.90
68051;DHT22;54839;51.364;7.246;2023-07-29T11:22:43;23.30;99.90
68051;DHT22;54839;51.364;7.246;2023-07-29T11:25:11;23.50;99.90
68051;DHT22;54839;51.364;7.246;2023-07-29T11:27:38;23.30;99.90
68051;DHT22;54839;51.364;7.246;2023-07-29T11:30:06;22.90;99.90
68051;DHT22;54839;51.364;7.246;2023-07-29T11:32:32;22.90;99.90
68051;DHT22;54839;51.364;7.246;2023-07-29T11:35:06;23.10;99.90
68051;DHT22;54839;51.364;7.246;2023-07-29T11:37:34;23.40;99.90
68051;DHT22;54839;51.364;7.246;2023-07-29T11:40:00;23.70;99.90
68051;DHT22;54839;51.364;7.246;2023-07-29T11:42:26;23.30;99.90
68051;DHT22;54839;51.364;7.246;2023-07-29T11:44:55;23.70;99.90
68051;DHT22;54839;51.364;7.246;2023-07-29T11:47:21;23.50;99.90
68051;DHT22;54839;51.364;7.246;2023-07-29T11:49:47;23.40;99.90
68051;DHT22;54839;51.364;7.246;2023-07-29T11:52:13;23.30;99.90
68051;DHT22;54839;51.364;7.246;2023-07-29T11:54:39;23.10;99.90
68051;DHT22;54839;51.364;7.246;2023-07-29T11:57:09;22.80;99.90
68051;DHT22;54839;51.364;7.246;2023-07-29T11:59:36;22.50;99.90
68051;DHT22;54839;51.364;7.246;2023-07-29T12:02:06;22.20;99.90
68051;DHT22;54839;51.364;7.246;2023-07-29T12:04:34;22.10;99.90
68051;DHT22;54839;51.364;7.246;2023-07-29T12:07:00;22.20;99.90
68051;DHT22;54839;51.364;7.246;2023-07-29T12:09:27;22.50;99.90
68051;DHT22;54839;51.364;7.246;2023-07-29T12:11:54;23.10;99.90
68051;DHT22;54839;51.364;7.246;2023-07-29T12:14:20;23.50;99.90
68051;DHT22;54839;51.364;7.246;2023-07-29T12:16:48;23.30;99.90
68051;DHT22;54839;51.364;7.246;2023-07-29T12:19:14;22.80;99.90
68051;DHT22;54839;51.364;7.246;2023-07-29T12:21:44;22.40;99.90
68051;DHT22;54839;51.364;7.246;2023-07-29T12:24:12;22.60;99.90
68051;DHT22;54839;51.364;7.246;2023-07-29T12:26:38;23.00;99.90
68051;DHT22;54839;51.364;7.246;2023-07-29T12:29:16;23.50;99.90
68051;DHT22;54839;51.364;7.246;2023-07-29T12:31:42;23.40;99.90
68051;DHT22;54839;51.364;7.246;2023-07-29T12:34:08;23.10;99.90
68051;DHT22;54839;51.364;7.246;2023-07-29T12:36:45;23.10;99.90
68051;DHT22;54839;51.364;7.246;2023-07-29T12:39:21;22.90;99.90
68051;DHT22;54839;51.364;7.246;2023-07-29T12:41:49;22.70;99.90
68051;DHT22;54839;51.364;7.246;2023-07-29T12:44:15;22.50;99.90
68051;DHT22;54839;51.364;7.246;2023-07-29T12:46:41;22.40;99.90
68051;DHT22;54839;51.364;7.246;2023-07-29T12:49:07;22.20;99.90
68051;DHT22;54839;51.364;7.246;2023-07-29T12:51:32;22.20;99.90
68051;DHT22;54839;51.364;7.246;2023-07-29T12:53:58;22.30;99.90
68051;DHT22;54839;51.364;7.246;2023-07-29T12:56:24;22.70;99.90
68051;DHT22;54839;51.364;7.246;2023-07-29T12:58:50;25.90;99.90
68051;DHT22;54839;51.364;7.246;2023-07-29T13:01:15;28.40;99.90
68051;DHT22;54839;51.364;7.246;2023-07-29T13:03:45;28.40;99.90
68051;DHT22;54839;51.364;7.246;2023-07-29T13:06:11;28.70;99.90
68051;DHT22;54839;51.364;7.246;2023-07-29T13:08:36;29.20;99.90
68051;DHT22;54839;51.364;7.246;2023-07-29T13:11:03;29.80;99.90
68051;DHT22;54839;51.364;7.246;2023-07-29T13:13:29;29.30;99.90
68051;DHT22;54839;51.364;7.246;2023-07-29T13:15:54;28.70;99.90
68051;DHT22;54839;51.364;7.246;2023-07-29T13:18:21;27.10;99.90
68051;DHT22;54839;51.364;7.246;2023-07-29T13:20:47;26.80;99.90
68051;DHT22;54839;51.364;7.246;2023-07-29T13:23:12;27.80;99.90
68051;DHT22;54839;51.364;7.246;2023-07-29T13:25:38;28.30;99.90
68051;DHT22;54839;51.364;7.246;2023-07-29T13:28:04;27.50;99.90
68051;DHT22;54839;51.364;7.246;2023-07-29T13:30:30;25.90;99.90
68051;DHT22;54839;51.364;7.246;2023-07-29T13:32:56;25.80;99.90
68051;DHT22;54839;51.364;7.246;2023-07-29T13:35:22;25.40;99.90
68051;DHT22;54839;51.364;7.246;2023-07-29T13:37:47;26.30;99.90
68051;DHT22;54839;51.364;7.246;2023-07-29T13:40:13;26.20;99.90
68051;DHT22;54839;51.364;7.246;2023-07-29T13:42:39;25.70;99.90
68051;DHT22;54839;51.364;7.246;2023-07-29T13:45:05;25.30;99.90
68051;DHT22;54839;51.364;7.246;2023-07-29T13:47:30;24.50;99.90
68051;DHT22;54839;51.364;7.246;2023-07-29T13:49:56;24.00;99.90
68051;DHT22;54839;51.364;7.246;2023-07-29T13:52:22;23.70;99.90
68051;DHT22;54839;51.364;7.246;2023-07-29T13:54:47;23.60;99.90
68051;DHT22;54839;51.364;7.246;2023-07-29T13:57:13;23.40;99.90
68051;DHT22;54839;51.364;7.246;2023-07-29T13:59:39;23.50;99.90
68051;DHT22;54839;51.364;7.246;2023-07-29T14:02:05;23.40;99.90
68051;DHT22;54839;51.364;7.246;2023-07-29T14:04:32;23.10;99.90
68051;DHT22;54839;51.364;7.246;2023-07-29T14:06:58;22.70;99.90
68051;DHT22;54839;51.364;7.246;2023-07-29T14:09:25;22.50;99.90
68051;DHT22;54839;51.364;7.246;2023-07-29T14:11:50;22.10;99.90
68051;DHT22;54839;51.364;7.246;2023-07-29T14:14:16;22.00;99.90
68051;DHT22;54839;51.364;7.246;2023-07-29T14:16:41;22.00;99.90
68051;DHT22;54839;51.364;7.246;2023-07-29T14:19:07;22.10;99.90
68051;DHT22;54839;51.364;7.246;2023-07-29T14:21:33;22.00;99.90
68051;DHT22;54839;51.364;7.246;2023-07-29T14:23:58;21.90;99.90
68051;DHT22;54839;51.364;7.246;2023-07-29T14:26:24;21.90;99.90
68051;DHT22;54839;51.364;7.246;2023-07-29T14:28:50;22.00;99.90
68051;DHT22;54839;51.364;7.246;2023-07-29T14:31:16;22.20;99.90
68051;DHT22;54839;51.364;7.246;2023-07-29T14:33:44;22.50;99.90
68051;DHT22;54839;51.364;7.246;2023-07-29T14:36:10;22.50;99.90
68051;DHT22;54839;51.364;7.246;2023-07-29T14:38:36;23.40;99.90
68051;DHT22;54839;51.364;7.246;2023-07-29T14:41:03;24.40;99.90
68051;DHT22;54839;51.364;7.246;2023-07-29T14:43:30;25.80;99.90
68051;DHT22;54839;51.364;7.246;2023-07-29T14:45:56;26.00;99.90
68051;DHT22;54839;51.364;7.246;2023-07-29T14:48:22;25.40;99.90
68051;DHT22;54839;51.364;7.246;2023-07-29T14:50:48;25.00;99.90
68051;DHT22;54839;51.364;7.246;2023-07-29T14:53:14;24.30;99.90
68051;DHT22;54839;51.364;7.246;2023-07-29T14:55:39;23.70;99.90
68051;DHT22;54839;51.364;7.246;2023-07-29T14:58:05;23.20;99.90
68051;DHT22;54839;51.364;7.246;2023-07-29T15:00:31;22.90;99.90
68051;DHT22;54839;51.364;7.246;2023-07-29T15:02:58;22.40;99.90
68051;DHT22;54839;51.364;7.246;2023-07-29T15:05:23;23.10;99.90
68051;DHT22;54839;51.364;7.246;2023-07-29T15:07:49;23.10;99.90
68051;DHT22;54839;51.364;7.246;2023-07-29T15:10:16;22.90;99.90
68051;DHT22;54839;51.364;7.246;2023-07-29T15:12:42;23.40;99.90
68051;DHT22;54839;51.364;7.246;2023-07-29T15:15:09;23.50;99.90
68051;DHT22;54839;51.364;7.246;2023-07-29T15:17:34;22.90;99.90
68051;DHT22;54839;51.364;7.246;2023-07-29T15:20:02;22.80;99.90
68051;DHT22;54839;51.364;7.246;2023-07-29T15:22:29;23.30;99.90
68051;DHT22;54839;51.364;7.246;2023-07-29T15:24:54;24.50;99.90
68051;DHT22;54839;51.364;7.246;2023-07-29T15:27:20;25.00;99.90
68051;DHT22;54839;51.364;7.246;2023-07-29T15:29:46;25.10;99.90
68051;DHT22;54839;51.364;7.246;2023-07-29T15:32:11;25.20;99.90
68051;DHT22;54839;51.364;7.246;2023-07-29T15:34:37;25.10;99.90
68051;DHT22;54839;51.364;7.246;2023-07-29T15:37:03;25.80;99.90
68051;DHT22;54839;51.364;7.246;2023-07-29T15:39:29;27.20;99.90